sensor_id;sensor_type;location;lat;lon;timestamp;P1;durP1;ratioP1;P2;durP2;ratioP2
20894;SDS011;10607;42.066;24.742;2022-12-18T00:01:40;33.43;;;21.50;;
20894;SDS011;10607;42.066;24.742;2022-12-18T00:04:05;80.13;;;24.53;;
20894;SDS011;10607;42.066;24.742;2022-12-18T00:06:31;35.77;;;19.23;;
20894;SDS011;10607;42.066;24.742;2022-12-18T00:08:58;28.80;;;17.07;;
20894;SDS011;10607;42.066;24.742;2022-12-18T00:11:24;25.70;;;16.67;;
20894;SDS011;10607;42.066;24.742;2022-12-18T00:13:50;22.10;;;12.27;;
20894;SDS011;10607;42.066;24.742;2022-12-18T00:16:17;19.20;;;11.53;;
20894;SDS011;10607;42.066;24.742;2022-12-18T00:18:45;18.17;;;10.80;;
20894;SDS011;10607;42.066;24.742;2022-12-18T00:21:11;18.73;;;10.90;;
20894;SDS011;10607;42.066;24.742;2022-12-18T00:23:36;21.30;;;12.13;;
20894;SDS011;10607;42.066;24.742;2022-12-18T00:26:03;22.07;;;15.30;;
20894;SDS011;10607;42.066;24.742;2022-12-18T00:28:29;25.43;;;13.77;;
20894;SDS011;10607;42.066;24.742;2022-12-18T00:31:01;23.47;;;13.33;;
20894;SDS011;10607;42.066;24.742;2022-12-18T00:33:27;20.90;;;13.50;;
20894;SDS011;10607;42.066;24.742;2022-12-18T00:35:52;31.50;;;18.97;;
20894;SDS011;10607;42.066;24.742;2022-12-18T00:38:17;31.90;;;18.90;;
20894;SDS011;10607;42.066;24.742;2022-12-18T00:40:43;28.40;;;18.03;;
20894;SDS011;10607;42.066;24.742;2022-12-18T00:43:08;38.87;;;20.43;;
20894;SDS011;10607;42.066;24.742;2022-12-18T00:45:33;36.50;;;20.00;;
20894;SDS011;10607;42.066;24.742;2022-12-18T00:47:59;38.67;;;20.80;;
20894;SDS011;10607;42.066;24.742;2022-12-18T00:50:24;28.83;;;17.37;;
20894;SDS011;10607;42.066;24.742;2022-12-18T00:52:50;37.63;;;22.03;;
20894;SDS011;10607;42.066;24.742;2022-12-18T00:55:16;34.60;;;20.40;;
20894;SDS011;10607;42.066;24.742;2022-12-18T00:57:41;32.93;;;20.00;;
20894;SDS011;10607;42.066;24.742;2022-12-18T01:00:07;29.90;;;19.30;;
20894;SDS011;10607;42.066;24.742;2022-12-18T01:02:33;32.10;;;18.13;;
20894;SDS011;10607;42.066;24.742;2022-12-18T01:04:58;30.90;;;17.13;;
20894;SDS011;10607;42.066;24.742;2022-12-18T01:07:23;37.63;;;21.60;;
20894;SDS011;10607;42.066;24.742;2022-12-18T01:09:48;27.87;;;17.30;;
20894;SDS011;10607;42.066;24.742;2022-12-18T01:12:14;27.37;;;15.17;;
20894;SDS011;10607;42.066;24.742;2022-12-18T01:14:39;22.90;;;14.47;;
20894;SDS011;10607;42.066;24.742;2022-12-18T01:17:04;23.60;;;14.20;;
20894;SDS011;10607;42.066;24.742;2022-12-18T01:19:30;24.17;;;13.90;;
20894;SDS011;10607;42.066;24.742;2022-12-18T01:21:55;21.97;;;13.37;;
20894;SDS011;10607;42.066;24.742;2022-12-18T01:24:20;24.37;;;13.47;;
20894;SDS011;10607;42.066;24.742;2022-12-18T01:26:45;23.83;;;13.50;;
20894;SDS011;10607;42.066;24.742;2022-12-18T01:29:11;25.53;;;13.53;;
20894;SDS011;10607;42.066;24.742;2022-12-18T01:31:36;19.10;;;12.40;;
20894;SDS011;10607;42.066;24.742;2022-12-18T01:34:02;29.07;;;14.83;;
20894;SDS011;10607;42.066;24.742;2022-12-18T01:36:28;25.77;;;14.70;;
20894;SDS011;10607;42.066;24.742;2022-12-18T01:38:54;25.53;;;15.70;;
20894;SDS011;10607;42.066;24.742;2022-12-18T01:41:24;22.97;;;13.97;;
20894;SDS011;10607;42.066;24.742;2022-12-18T01:43:51;24.73;;;15.23;;
20894;SDS011;10607;42.066;24.742;2022-12-18T01:46:17;26.07;;;15.33;;
20894;SDS011;10607;42.066;24.742;2022-12-18T01:48:44;29.13;;;16.67;;
20894;SDS011;10607;42.066;24.742;2022-12-18T01:51:10;21.97;;;14.93;;
20894;SDS011;10607;42.066;24.742;2022-12-18T01:53:36;25.83;;;15.40;;
20894;SDS011;10607;42.066;24.742;2022-12-18T01:56:01;24.10;;;14.57;;
20894;SDS011;10607;42.066;24.742;2022-12-18T02:01:04;20.10;;;14.17;;
20894;SDS011;10607;42.066;24.742;2022-12-18T02:03:29;20.02;;;12.43;;
20894;SDS011;10607;42.066;24.742;2022-12-18T02:06:29;17.30;;;11.53;;
20894;SDS011;10607;42.066;24.742;2022-12-18T02:18:51;19.00;;;10.67;;
20894;SDS011;10607;42.066;24.742;2022-12-18T02:24:02;22.13;;;11.20;;
20894;SDS011;10607;42.066;24.742;2022-12-18T02:26:37;19.47;;;11.70;;
20894;SDS011;10607;42.066;24.742;2022-12-18T02:29:08;20.13;;;11.67;;
20894;SDS011;10607;42.066;24.742;2022-12-18T02:31:36;17.77;;;12.03;;
20894;SDS011;10607;42.066;24.742;2022-12-18T02:34:03;22.03;;;12.60;;
20894;SDS011;10607;42.066;24.742;2022-12-18T02:36:29;19.85;;;12.82;;
20894;SDS011;10607;42.066;24.742;2022-12-18T02:38:57;20.73;;;14.23;;
20894;SDS011;10607;42.066;24.742;2022-12-18T02:41:23;21.83;;;13.47;;
20894;SDS011;10607;42.066;24.742;2022-12-18T02:43:53;20.03;;;13.40;;
20894;SDS011;10607;42.066;24.742;2022-12-18T02:46:23;19.13;;;12.90;;
20894;SDS011;10607;42.066;24.742;2022-12-18T02:48:49;23.67;;;12.17;;
20894;SDS011;10607;42.066;24.742;2022-12-18T02:51:23;21.50;;;13.80;;
20894;SDS011;10607;42.066;24.742;2022-12-18T02:53:53;24.83;;;14.63;;
20894;SDS011;10607;42.066;24.742;2022-12-18T02:56:21;24.13;;;14.53;;
20894;SDS011;10607;42.066;24.742;2022-12-18T03:03:45;21.57;;;14.80;;
20894;SDS011;10607;42.066;24.742;2022-12-18T03:06:18;22.97;;;15.20;;
20894;SDS011;10607;42.066;24.742;2022-12-18T03:08:46;25.03;;;14.93;;
20894;SDS011;10607;42.066;24.742;2022-12-18T03:11:14;20.67;;;14.30;;
20894;SDS011;10607;42.066;24.742;2022-12-18T03:13:45;25.40;;;14.77;;
20894;SDS011;10607;42.066;24.742;2022-12-18T03:16:12;24.57;;;14.57;;
20894;SDS011;10607;42.066;24.742;2022-12-18T03:18:46;23.27;;;14.37;;
20894;SDS011;10607;42.066;24.742;2022-12-18T03:21:12;23.43;;;14.13;;
20894;SDS011;10607;42.066;24.742;2022-12-18T03:23:40;24.10;;;15.93;;
20894;SDS011;10607;42.066;24.742;2022-12-18T03:26:09;22.63;;;15.23;;
20894;SDS011;10607;42.066;24.742;2022-12-18T03:28:36;31.60;;;15.90;;
20894;SDS011;10607;42.066;24.742;2022-12-18T03:31:02;27.40;;;15.10;;
20894;SDS011;10607;42.066;24.742;2022-12-18T03:33:34;26.20;;;14.90;;
20894;SDS011;10607;42.066;24.742;2022-12-18T03:36:02;23.13;;;14.60;;
20894;SDS011;10607;42.066;24.742;2022-12-18T03:38:28;21.33;;;13.87;;
20894;SDS011;10607;42.066;24.742;2022-12-18T03:43:20;21.20;;;13.63;;
20894;SDS011;10607;42.066;24.742;2022-12-18T03:45:59;22.43;;;12.73;;
20894;SDS011;10607;42.066;24.742;2022-12-18T03:48:29;22.50;;;12.50;;
20894;SDS011;10607;42.066;24.742;2022-12-18T03:55:49;21.47;;;14.37;;
20894;SDS011;10607;42.066;24.742;2022-12-18T03:58:16;23.50;;;14.17;;
20894;SDS011;10607;42.066;24.742;2022-12-18T04:00:43;27.23;;;14.83;;
20894;SDS011;10607;42.066;24.742;2022-12-18T04:03:09;24.47;;;14.17;;
20894;SDS011;10607;42.066;24.742;2022-12-18T04:05:35;19.63;;;13.77;;
20894;SDS011;10607;42.066;24.742;2022-12-18T04:08:02;20.83;;;14.17;;
20894;SDS011;10607;42.066;24.742;2022-12-18T04:10:27;18.83;;;13.60;;
20894;SDS011;10607;42.066;24.742;2022-12-18T04:12:55;18.97;;;12.50;;
20894;SDS011;10607;42.066;24.742;2022-12-18T04:15:20;22.27;;;13.33;;
20894;SDS011;10607;42.066;24.742;2022-12-18T04:17:49;19.63;;;13.07;;
20894;SDS011;10607;42.066;24.742;2022-12-18T04:20:14;19.40;;;13.20;;
20894;SDS011;10607;42.066;24.742;2022-12-18T04:22:39;19.10;;;11.07;;
20894;SDS011;10607;42.066;24.742;2022-12-18T04:25:05;19.33;;;12.73;;
20894;SDS011;10607;42.066;24.742;2022-12-18T04:27:30;20.87;;;12.50;;
20894;SDS011;10607;42.066;24.742;2022-12-18T04:29:55;19.60;;;11.83;;
20894;SDS011;10607;42.066;24.742;2022-12-18T04:32:21;19.73;;;11.83;;
20894;SDS011;10607;42.066;24.742;2022-12-18T04:34:46;21.20;;;13.17;;
20894;SDS011;10607;42.066;24.742;2022-12-18T04:37:11;22.70;;;12.53;;
20894;SDS011;10607;42.066;24.742;2022-12-18T04:39:36;21.53;;;12.83;;
20894;SDS011;10607;42.066;24.742;2022-12-18T04:42:02;19.40;;;12.00;;
20894;SDS011;10607;42.066;24.742;2022-12-18T04:44:27;23.90;;;12.23;;
20894;SDS011;10607;42.066;24.742;2022-12-18T04:46:52;21.33;;;13.20;;
20894;SDS011;10607;42.066;24.742;2022-12-18T04:49:18;18.57;;;12.57;;
20894;SDS011;10607;42.066;24.742;2022-12-18T04:51:43;22.67;;;13.40;;
20894;SDS011;10607;42.066;24.742;2022-12-18T04:54:08;22.63;;;13.67;;
20894;SDS011;10607;42.066;24.742;2022-12-18T04:56:34;20.90;;;13.27;;
20894;SDS011;10607;42.066;24.742;2022-12-18T04:58:59;23.43;;;12.77;;
20894;SDS011;10607;42.066;24.742;2022-12-18T05:01:24;18.80;;;11.60;;
20894;SDS011;10607;42.066;24.742;2022-12-18T05:03:50;18.87;;;12.20;;
20894;SDS011;10607;42.066;24.742;2022-12-18T05:06:16;18.67;;;11.97;;
20894;SDS011;10607;42.066;24.742;2022-12-18T05:08:41;20.00;;;11.67;;
20894;SDS011;10607;42.066;24.742;2022-12-18T05:11:12;14.40;;;10.30;;
20894;SDS011;10607;42.066;24.742;2022-12-18T05:13:40;21.00;;;11.93;;
20894;SDS011;10607;42.066;24.742;2022-12-18T05:16:06;21.50;;;12.67;;
20894;SDS011;10607;42.066;24.742;2022-12-18T05:18:31;21.20;;;12.20;;
20894;SDS011;10607;42.066;24.742;2022-12-18T05:20:57;19.27;;;12.50;;
20894;SDS011;10607;42.066;24.742;2022-12-18T05:23:23;26.20;;;13.33;;
20894;SDS011;10607;42.066;24.742;2022-12-18T05:28:16;19.07;;;12.13;;
20894;SDS011;10607;42.066;24.742;2022-12-18T05:30:41;20.20;;;12.90;;
20894;SDS011;10607;42.066;24.742;2022-12-18T05:33:07;26.27;;;13.87;;
20894;SDS011;10607;42.066;24.742;2022-12-18T05:35:32;23.90;;;16.33;;
20894;SDS011;10607;42.066;24.742;2022-12-18T05:37:57;24.60;;;16.80;;
20894;SDS011;10607;42.066;24.742;2022-12-18T05:40:22;24.37;;;17.50;;
20894;SDS011;10607;42.066;24.742;2022-12-18T05:42:48;23.37;;;15.23;;
20894;SDS011;10607;42.066;24.742;2022-12-18T05:45:13;24.57;;;15.20;;
20894;SDS011;10607;42.066;24.742;2022-12-18T05:47:38;22.73;;;13.50;;
20894;SDS011;10607;42.066;24.742;2022-12-18T05:50:04;17.47;;;11.83;;
20894;SDS011;10607;42.066;24.742;2022-12-18T05:52:30;19.83;;;12.13;;
20894;SDS011;10607;42.066;24.742;2022-12-18T05:54:55;16.20;;;10.87;;
20894;SDS011;10607;42.066;24.742;2022-12-18T05:57:20;18.33;;;11.10;;
20894;SDS011;10607;42.066;24.742;2022-12-18T05:59:46;19.70;;;11.53;;
20894;SDS011;10607;42.066;24.742;2022-12-18T06:02:11;17.63;;;11.60;;
20894;SDS011;10607;42.066;24.742;2022-12-18T06:04:36;18.83;;;12.07;;
20894;SDS011;10607;42.066;24.742;2022-12-18T06:07:02;16.13;;;11.27;;
20894;SDS011;10607;42.066;24.742;2022-12-18T06:09:28;16.07;;;10.27;;
20894;SDS011;10607;42.066;24.742;2022-12-18T06:11:53;21.67;;;9.93;;
20894;SDS011;10607;42.066;24.742;2022-12-18T06:14:19;18.90;;;10.73;;
20894;SDS011;10607;42.066;24.742;2022-12-18T06:16:44;13.70;;;7.43;;
20894;SDS011;10607;42.066;24.742;2022-12-18T06:19:12;8.33;;;5.87;;
20894;SDS011;10607;42.066;24.742;2022-12-18T06:21:38;10.97;;;5.67;;
20894;SDS011;10607;42.066;24.742;2022-12-18T06:24:03;9.23;;;6.27;;
20894;SDS011;10607;42.066;24.742;2022-12-18T06:26:29;9.03;;;6.17;;
20894;SDS011;10607;42.066;24.742;2022-12-18T06:28:54;9.43;;;5.57;;
20894;SDS011;10607;42.066;24.742;2022-12-18T06:31:19;7.90;;;5.50;;
20894;SDS011;10607;42.066;24.742;2022-12-18T06:33:45;9.40;;;5.67;;
20894;SDS011;10607;42.066;24.742;2022-12-18T06:36:11;8.27;;;5.80;;
20894;SDS011;10607;42.066;24.742;2022-12-18T06:38:41;6.83;;;5.27;;
20894;SDS011;10607;42.066;24.742;2022-12-18T06:41:07;7.57;;;5.10;;
20894;SDS011;10607;42.066;24.742;2022-12-18T06:43:32;8.97;;;4.77;;
20894;SDS011;10607;42.066;24.742;2022-12-18T06:45:59;6.07;;;4.10;;
20894;SDS011;10607;42.066;24.742;2022-12-18T06:48:24;7.20;;;4.77;;
20894;SDS011;10607;42.066;24.742;2022-12-18T06:50:49;6.73;;;4.33;;
20894;SDS011;10607;42.066;24.742;2022-12-18T06:53:14;6.93;;;3.97;;
20894;SDS011;10607;42.066;24.742;2022-12-18T06:55:40;4.87;;;4.07;;
20894;SDS011;10607;42.066;24.742;2022-12-18T06:58:05;9.13;;;4.57;;
20894;SDS011;10607;42.066;24.742;2022-12-18T07:00:31;7.50;;;4.20;;
20894;SDS011;10607;42.066;24.742;2022-12-18T07:02:57;8.60;;;4.57;;
20894;SDS011;10607;42.066;24.742;2022-12-18T07:05:22;7.60;;;4.87;;
20894;SDS011;10607;42.066;24.742;2022-12-18T07:07:47;7.23;;;4.37;;
20894;SDS011;10607;42.066;24.742;2022-12-18T07:10:13;6.10;;;4.13;;
20894;SDS011;10607;42.066;24.742;2022-12-18T07:12:38;8.53;;;4.60;;
20894;SDS011;10607;42.066;24.742;2022-12-18T07:15:03;8.43;;;3.83;;
20894;SDS011;10607;42.066;24.742;2022-12-18T07:17:29;8.77;;;4.67;;
20894;SDS011;10607;42.066;24.742;2022-12-18T07:19:54;8.97;;;4.90;;
20894;SDS011;10607;42.066;24.742;2022-12-18T07:22:20;7.53;;;5.37;;
20894;SDS011;10607;42.066;24.742;2022-12-18T07:24:45;8.03;;;5.03;;
20894;SDS011;10607;42.066;24.742;2022-12-18T07:27:10;7.47;;;4.87;;
20894;SDS011;10607;42.066;24.742;2022-12-18T07:29:35;7.43;;;4.90;;
20894;SDS011;10607;42.066;24.742;2022-12-18T07:32:01;7.27;;;4.77;;
20894;SDS011;10607;42.066;24.742;2022-12-18T07:34:26;7.57;;;5.47;;
20894;SDS011;10607;42.066;24.742;2022-12-18T07:36:51;6.83;;;4.50;;
20894;SDS011;10607;42.066;24.742;2022-12-18T07:39:17;13.43;;;5.60;;
20894;SDS011;10607;42.066;24.742;2022-12-18T07:41:42;6.50;;;4.43;;
20894;SDS011;10607;42.066;24.742;2022-12-18T07:44:10;7.03;;;4.60;;
20894;SDS011;10607;42.066;24.742;2022-12-18T07:46:36;10.57;;;5.60;;
20894;SDS011;10607;42.066;24.742;2022-12-18T07:49:01;9.23;;;4.90;;
20894;SDS011;10607;42.066;24.742;2022-12-18T07:51:26;7.83;;;5.13;;
20894;SDS011;10607;42.066;24.742;2022-12-18T07:53:52;11.07;;;4.80;;
20894;SDS011;10607;42.066;24.742;2022-12-18T07:56:17;7.43;;;4.20;;
20894;SDS011;10607;42.066;24.742;2022-12-18T07:58:42;7.37;;;3.77;;
20894;SDS011;10607;42.066;24.742;2022-12-18T08:01:09;5.50;;;3.67;;
20894;SDS011;10607;42.066;24.742;2022-12-18T08:03:35;6.67;;;4.10;;
20894;SDS011;10607;42.066;24.742;2022-12-18T08:06:01;10.83;;;3.47;;
20894;SDS011;10607;42.066;24.742;2022-12-18T08:08:27;5.77;;;3.77;;
20894;SDS011;10607;42.066;24.742;2022-12-18T08:10:52;9.40;;;4.23;;
20894;SDS011;10607;42.066;24.742;2022-12-18T08:13:17;7.77;;;4.60;;
20894;SDS011;10607;42.066;24.742;2022-12-18T08:15:42;6.20;;;4.30;;
20894;SDS011;10607;42.066;24.742;2022-12-18T08:18:08;5.87;;;3.70;;
20894;SDS011;10607;42.066;24.742;2022-12-18T08:20:33;6.47;;;4.23;;
20894;SDS011;10607;42.066;24.742;2022-12-18T08:22:58;5.03;;;3.90;;
20894;SDS011;10607;42.066;24.742;2022-12-18T08:25:23;6.83;;;3.80;;
20894;SDS011;10607;42.066;24.742;2022-12-18T08:27:49;7.50;;;3.97;;
20894;SDS011;10607;42.066;24.742;2022-12-18T08:30:14;7.93;;;4.07;;
20894;SDS011;10607;42.066;24.742;2022-12-18T08:32:39;4.53;;;3.80;;
20894;SDS011;10607;42.066;24.742;2022-12-18T08:35:05;7.77;;;3.60;;
20894;SDS011;10607;42.066;24.742;2022-12-18T08:37:30;4.50;;;3.23;;
20894;SDS011;10607;42.066;24.742;2022-12-18T08:39:55;5.63;;;3.30;;
20894;SDS011;10607;42.066;24.742;2022-12-18T08:42:21;6.20;;;4.13;;
20894;SDS011;10607;42.066;24.742;2022-12-18T08:45:05;5.70;;;3.43;;
20894;SDS011;10607;42.066;24.742;2022-12-18T08:47:30;6.73;;;4.70;;
20894;SDS011;10607;42.066;24.742;2022-12-18T08:49:55;6.23;;;3.90;;
20894;SDS011;10607;42.066;24.742;2022-12-18T08:52:21;8.50;;;4.23;;
20894;SDS011;10607;42.066;24.742;2022-12-18T08:54:46;10.67;;;5.50;;
20894;SDS011;10607;42.066;24.742;2022-12-18T08:57:11;10.27;;;5.57;;
20894;SDS011;10607;42.066;24.742;2022-12-18T08:59:36;11.13;;;6.37;;
20894;SDS011;10607;42.066;24.742;2022-12-18T09:02:02;11.33;;;5.00;;
20894;SDS011;10607;42.066;24.742;2022-12-18T09:04:27;9.90;;;5.10;;
20894;SDS011;10607;42.066;24.742;2022-12-18T09:06:52;7.13;;;4.83;;
20894;SDS011;10607;42.066;24.742;2022-12-18T09:09:17;9.83;;;4.90;;
20894;SDS011;10607;42.066;24.742;2022-12-18T09:11:43;8.10;;;4.70;;
20894;SDS011;10607;42.066;24.742;2022-12-18T09:14:08;7.97;;;4.70;;
20894;SDS011;10607;42.066;24.742;2022-12-18T09:16:33;11.07;;;4.33;;
20894;SDS011;10607;42.066;24.742;2022-12-18T09:19:00;8.77;;;4.93;;
20894;SDS011;10607;42.066;24.742;2022-12-18T09:21:26;9.10;;;5.27;;
20894;SDS011;10607;42.066;24.742;2022-12-18T09:23:52;7.67;;;5.13;;
20894;SDS011;10607;42.066;24.742;2022-12-18T09:26:17;9.97;;;5.30;;
20894;SDS011;10607;42.066;24.742;2022-12-18T09:28:43;7.17;;;4.80;;
20894;SDS011;10607;42.066;24.742;2022-12-18T09:31:08;7.40;;;4.93;;
20894;SDS011;10607;42.066;24.742;2022-12-18T09:33:35;8.50;;;3.97;;
20894;SDS011;10607;42.066;24.742;2022-12-18T09:36:02;7.47;;;4.33;;
20894;SDS011;10607;42.066;24.742;2022-12-18T09:38:28;5.53;;;3.93;;
20894;SDS011;10607;42.066;24.742;2022-12-18T09:40:53;7.67;;;4.33;;
20894;SDS011;10607;42.066;24.742;2022-12-18T09:43:21;5.83;;;4.07;;
20894;SDS011;10607;42.066;24.742;2022-12-18T09:45:51;5.88;;;3.90;;
20894;SDS011;10607;42.066;24.742;2022-12-18T09:48:35;5.27;;;3.90;;
20894;SDS011;10607;42.066;24.742;2022-12-18T09:51:02;6.73;;;3.80;;
20894;SDS011;10607;42.066;24.742;2022-12-18T09:53:30;8.33;;;4.33;;
20894;SDS011;10607;42.066;24.742;2022-12-18T09:55:56;6.20;;;4.40;;
20894;SDS011;10607;42.066;24.742;2022-12-18T09:58:30;8.27;;;5.13;;
20894;SDS011;10607;42.066;24.742;2022-12-18T10:00:56;6.60;;;4.70;;
20894;SDS011;10607;42.066;24.742;2022-12-18T10:03:22;7.47;;;4.00;;
20894;SDS011;10607;42.066;24.742;2022-12-18T10:10:48;10.20;;;5.17;;
20894;SDS011;10607;42.066;24.742;2022-12-18T10:24:33;6.03;;;4.53;;
20894;SDS011;10607;42.066;24.742;2022-12-18T10:27:12;5.70;;;3.88;;
20894;SDS011;10607;42.066;24.742;2022-12-18T10:29:38;6.43;;;3.70;;
20894;SDS011;10607;42.066;24.742;2022-12-18T10:32:04;5.73;;;3.90;;
20894;SDS011;10607;42.066;24.742;2022-12-18T10:34:29;9.77;;;4.47;;
20894;SDS011;10607;42.066;24.742;2022-12-18T10:36:54;5.73;;;4.13;;
20894;SDS011;10607;42.066;24.742;2022-12-18T10:39:21;6.70;;;4.53;;
20894;SDS011;10607;42.066;24.742;2022-12-18T10:41:47;7.37;;;4.40;;
20894;SDS011;10607;42.066;24.742;2022-12-18T10:44:17;8.43;;;4.93;;
20894;SDS011;10607;42.066;24.742;2022-12-18T10:46:46;6.93;;;4.60;;
20894;SDS011;10607;42.066;24.742;2022-12-18T10:49:18;7.53;;;4.60;;
20894;SDS011;10607;42.066;24.742;2022-12-18T10:51:44;6.23;;;4.67;;
20894;SDS011;10607;42.066;24.742;2022-12-18T10:54:17;8.30;;;4.90;;
20894;SDS011;10607;42.066;24.742;2022-12-18T10:56:43;8.10;;;4.70;;
20894;SDS011;10607;42.066;24.742;2022-12-18T10:59:10;6.60;;;4.13;;
20894;SDS011;10607;42.066;24.742;2022-12-18T11:01:54;8.32;;;3.85;;
20894;SDS011;10607;42.066;24.742;2022-12-18T11:04:31;7.17;;;4.50;;
20894;SDS011;10607;42.066;24.742;2022-12-18T11:07:00;8.67;;;4.73;;
20894;SDS011;10607;42.066;24.742;2022-12-18T11:09:44;6.45;;;4.53;;
20894;SDS011;10607;42.066;24.742;2022-12-18T11:12:17;7.23;;;4.37;;
20894;SDS011;10607;42.066;24.742;2022-12-18T11:14:50;6.93;;;4.53;;
20894;SDS011;10607;42.066;24.742;2022-12-18T11:17:19;6.57;;;4.60;;
20894;SDS011;10607;42.066;24.742;2022-12-18T11:19:45;7.93;;;4.70;;
20894;SDS011;10607;42.066;24.742;2022-12-18T11:22:32;7.33;;;4.20;;
20894;SDS011;10607;42.066;24.742;2022-12-18T11:25:19;8.77;;;4.53;;
20894;SDS011;10607;42.066;24.742;2022-12-18T11:28:02;8.50;;;4.67;;
20894;SDS011;10607;42.066;24.742;2022-12-18T11:30:29;7.60;;;5.40;;
20894;SDS011;10607;42.066;24.742;2022-12-18T11:35:47;8.93;;;6.17;;
20894;SDS011;10607;42.066;24.742;2022-12-18T11:38:24;12.00;;;7.70;;
20894;SDS011;10607;42.066;24.742;2022-12-18T11:43:26;15.90;;;10.27;;
20894;SDS011;10607;42.066;24.742;2022-12-18T11:45:53;20.43;;;11.30;;
20894;SDS011;10607;42.066;24.742;2022-12-18T11:48:23;19.47;;;10.50;;
20894;SDS011;10607;42.066;24.742;2022-12-18T11:53:16;17.83;;;11.43;;
20894;SDS011;10607;42.066;24.742;2022-12-18T12:00:54;10.20;;;6.73;;
20894;SDS011;10607;42.066;24.742;2022-12-18T12:03:35;15.17;;;7.70;;
20894;SDS011;10607;42.066;24.742;2022-12-18T12:21:37;14.17;;;7.83;;
20894;SDS011;10607;42.066;24.742;2022-12-18T12:24:09;15.50;;;8.03;;
20894;SDS011;10607;42.066;24.742;2022-12-18T12:26:56;17.37;;;8.83;;
20894;SDS011;10607;42.066;24.742;2022-12-18T12:32:10;14.20;;;7.60;;
20894;SDS011;10607;42.066;24.742;2022-12-18T12:39:47;9.97;;;7.60;;
20894;SDS011;10607;42.066;24.742;2022-12-18T12:42:15;15.80;;;8.33;;
20894;SDS011;10607;42.066;24.742;2022-12-18T12:45:01;14.23;;;7.93;;
20894;SDS011;10607;42.066;24.742;2022-12-18T12:47:32;14.50;;;8.83;;
20894;SDS011;10607;42.066;24.742;2022-12-18T12:49:59;12.43;;;8.27;;
20894;SDS011;10607;42.066;24.742;2022-12-18T12:54:53;31.00;;;14.63;;
20894;SDS011;10607;42.066;24.742;2022-12-18T12:57:29;67.17;;;22.90;;
20894;SDS011;10607;42.066;24.742;2022-12-18T13:05:14;37.63;;;17.60;;
20894;SDS011;10607;42.066;24.742;2022-12-18T13:10:31;27.67;;;13.23;;
20894;SDS011;10607;42.066;24.742;2022-12-18T13:13:07;18.33;;;10.37;;
20894;SDS011;10607;42.066;24.742;2022-12-18T13:18:09;16.77;;;9.30;;
20894;SDS011;10607;42.066;24.742;2022-12-18T13:21:23;20.80;;;10.83;;
20894;SDS011;10607;42.066;24.742;2022-12-18T13:28:23;19.27;;;11.40;;
20894;SDS011;10607;42.066;24.742;2022-12-18T13:30:53;21.37;;;12.57;;
20894;SDS011;10607;42.066;24.742;2022-12-18T13:38:23;16.43;;;10.87;;
20894;SDS011;10607;42.066;24.742;2022-12-18T13:43:37;17.13;;;10.20;;
20894;SDS011;10607;42.066;24.742;2022-12-18T13:48:26;21.73;;;11.90;;
20894;SDS011;10607;42.066;24.742;2022-12-18T13:50:53;21.47;;;11.80;;
20894;SDS011;10607;42.066;24.742;2022-12-18T13:53:21;19.40;;;10.80;;
20894;SDS011;10607;42.066;24.742;2022-12-18T13:55:48;22.07;;;11.83;;
20894;SDS011;10607;42.066;24.742;2022-12-18T13:58:14;20.63;;;11.70;;
20894;SDS011;10607;42.066;24.742;2022-12-18T14:00:42;20.37;;;13.03;;
20894;SDS011;10607;42.066;24.742;2022-12-18T14:06:03;30.17;;;17.73;;
20894;SDS011;10607;42.066;24.742;2022-12-18T14:08:34;61.50;;;32.47;;
20894;SDS011;10607;42.066;24.742;2022-12-18T14:11:00;27.23;;;17.47;;
20894;SDS011;10607;42.066;24.742;2022-12-18T14:13:27;27.13;;;17.90;;
20894;SDS011;10607;42.066;24.742;2022-12-18T14:15:53;33.20;;;21.60;;
20894;SDS011;10607;42.066;24.742;2022-12-18T14:18:23;41.40;;;22.43;;
20894;SDS011;10607;42.066;24.742;2022-12-18T14:20:50;34.70;;;23.00;;
20894;SDS011;10607;42.066;24.742;2022-12-18T14:23:35;60.50;;;36.93;;
20894;SDS011;10607;42.066;24.742;2022-12-18T14:26:21;47.50;;;23.70;;
20894;SDS011;10607;42.066;24.742;2022-12-18T14:28:46;40.33;;;26.93;;
20894;SDS011;10607;42.066;24.742;2022-12-18T14:31:18;38.60;;;21.70;;
20894;SDS011;10607;42.066;24.742;2022-12-18T14:33:44;31.87;;;20.37;;
20894;SDS011;10607;42.066;24.742;2022-12-18T14:36:14;26.43;;;16.50;;
20894;SDS011;10607;42.066;24.742;2022-12-18T14:38:41;29.17;;;17.83;;
20894;SDS011;10607;42.066;24.742;2022-12-18T14:41:15;34.00;;;17.97;;
20894;SDS011;10607;42.066;24.742;2022-12-18T14:43:45;20.90;;;12.97;;
20894;SDS011;10607;42.066;24.742;2022-12-18T14:48:51;30.73;;;19.57;;
20894;SDS011;10607;42.066;24.742;2022-12-18T14:51:25;51.20;;;28.13;;
20894;SDS011;10607;42.066;24.742;2022-12-18T14:53:55;33.23;;;18.87;;
20894;SDS011;10607;42.066;24.742;2022-12-18T14:56:21;32.77;;;19.20;;
20894;SDS011;10607;42.066;24.742;2022-12-18T14:58:48;47.07;;;26.47;;
20894;SDS011;10607;42.066;24.742;2022-12-18T15:01:18;40.60;;;22.63;;
20894;SDS011;10607;42.066;24.742;2022-12-18T15:03:43;39.93;;;23.73;;
20894;SDS011;10607;42.066;24.742;2022-12-18T15:06:15;31.03;;;19.87;;
20894;SDS011;10607;42.066;24.742;2022-12-18T15:08:41;35.20;;;22.33;;
20894;SDS011;10607;42.066;24.742;2022-12-18T15:11:28;46.30;;;28.03;;
20894;SDS011;10607;42.066;24.742;2022-12-18T15:13:52;44.60;;;27.57;;
20894;SDS011;10607;42.066;24.742;2022-12-18T15:16:18;56.23;;;30.93;;
20894;SDS011;10607;42.066;24.742;2022-12-18T15:18:43;48.33;;;27.43;;
20894;SDS011;10607;42.066;24.742;2022-12-18T15:21:10;39.93;;;24.77;;
20894;SDS011;10607;42.066;24.742;2022-12-18T15:23:38;37.43;;;24.27;;
20894;SDS011;10607;42.066;24.742;2022-12-18T15:26:10;42.93;;;23.67;;
20894;SDS011;10607;42.066;24.742;2022-12-18T15:33:30;30.00;;;18.73;;
20894;SDS011;10607;42.066;24.742;2022-12-18T15:36:03;34.63;;;20.90;;
20894;SDS011;10607;42.066;24.742;2022-12-18T15:38:29;40.43;;;23.03;;
20894;SDS011;10607;42.066;24.742;2022-12-18T15:40:54;47.70;;;27.43;;
20894;SDS011;10607;42.066;24.742;2022-12-18T15:43:21;40.80;;;25.03;;
20894;SDS011;10607;42.066;24.742;2022-12-18T15:46:03;41.40;;;24.53;;
20894;SDS011;10607;42.066;24.742;2022-12-18T15:48:29;46.87;;;27.13;;
20894;SDS011;10607;42.066;24.742;2022-12-18T15:50:54;45.37;;;26.20;;
20894;SDS011;10607;42.066;24.742;2022-12-18T15:53:21;52.87;;;29.77;;
20894;SDS011;10607;42.066;24.742;2022-12-18T15:55:47;33.00;;;20.03;;
20894;SDS011;10607;42.066;24.742;2022-12-18T15:58:31;32.13;;;20.07;;
20894;SDS011;10607;42.066;24.742;2022-12-18T16:00:56;41.30;;;22.00;;
20894;SDS011;10607;42.066;24.742;2022-12-18T16:03:23;38.00;;;21.13;;
20894;SDS011;10607;42.066;24.742;2022-12-18T16:05:48;36.30;;;21.70;;
20894;SDS011;10607;42.066;24.742;2022-12-18T16:08:13;35.17;;;22.63;;
20894;SDS011;10607;42.066;24.742;2022-12-18T16:10:39;27.90;;;18.17;;
20894;SDS011;10607;42.066;24.742;2022-12-18T16:13:04;36.80;;;22.47;;
20894;SDS011;10607;42.066;24.742;2022-12-18T16:15:30;30.37;;;18.77;;
20894;SDS011;10607;42.066;24.742;2022-12-18T16:17:56;27.73;;;17.23;;
20894;SDS011;10607;42.066;24.742;2022-12-18T16:20:21;27.30;;;15.90;;
20894;SDS011;10607;42.066;24.742;2022-12-18T16:22:47;29.53;;;16.97;;